sensor_id;sensor_type;location;lat;lon;timestamp;pressure;altitude;pressure_sealevel;temperature;humidity
5146;BME280;2591;48.144;15.152;2023-02-16T00:01:23;78174.72;;;-144.65;100.00
5146;BME280;2591;48.144;15.152;2023-02-16T00:03:52;78160.44;;;-144.65;100.00
5146;BME280;2591;48.144;15.152;2023-02-16T00:06:23;78162.50;;;-144.65;100.00
5146;BME280;2591;48.144;15.152;2023-02-16T00:08:52;78158.41;;;-144.65;100.00
5146;BME280;2591;48.144;15.152;2023-02-16T00:11:23;78162.50;;;-144.65;100.00
5146;BME280;2591;48.144;15.152;2023-02-16T00:14:12;78170.66;;;-144.65;100.00
5146;BME280;2591;48.144;15.152;2023-02-16T00:16:40;78176.78;;;-144.65;100.00
5146;BME280;2591;48.144;15.152;2023-02-16T00:19:17;78174.72;;;-144.65;100.00
5146;BME280;2591;48.144;15.152;2023-02-16T00:21:49;78166.56;;;-144.65;100.00
5146;BME280;2591;48.144;15.152;2023-02-16T00:24:17;78154.31;;;-144.65;100.00
5146;BME280;2591;48.144;15.152;2023-02-16T00:26:45;78148.22;;;-144.65;100.00
5146;BME280;2591;48.144;15.152;2023-02-16T00:29:18;78158.41;;;-144.65;100.00
5146;BME280;2591;48.144;15.152;2023-02-16T00:31:47;78162.50;;;-144.65;100.00
5146;BME280;2591;48.144;15.152;2023-02-16T00:34:25;78158.41;;;-144.65;100.00
5146;BME280;2591;48.144;15.152;2023-02-16T00:36:56;78156.38;;;-144.65;100.00
5146;BME280;2591;48.144;15.152;2023-02-16T00:39:25;78162.50;;;-144.65;100.00
5146;BME280;2591;48.144;15.152;2023-02-16T00:41:54;78160.44;;;-144.65;100.00
5146;BME280;2591;48.144;15.152;2023-02-16T00:44:28;78162.50;;;-144.65;100.00
5146;BME280;2591;48.144;15.152;2023-02-16T00:46:59;78166.56;;;-144.65;100.00
5146;BME280;2591;48.144;15.152;2023-02-16T00:49:28;78158.41;;;-144.65;100.00
5146;BME280;2591;48.144;15.152;2023-02-16T00:51:57;78154.31;;;-144.65;100.00
5146;BME280;2591;48.144;15.152;2023-02-16T00:54:25;78154.31;;;-144.65;100.00
5146;BME280;2591;48.144;15.152;2023-02-16T00:56:55;78152.28;;;-144.65;100.00
5146;BME280;2591;48.144;15.152;2023-02-16T00:59:23;78150.25;;;-144.65;100.00
5146;BME280;2591;48.144;15.152;2023-02-16T01:01:51;78138.00;;;-144.65;100.00
5146;BME280;2591;48.144;15.152;2023-02-16T01:04:21;78154.31;;;-144.65;100.00
5146;BME280;2591;48.144;15.152;2023-02-16T01:06:49;78158.41;;;-144.65;100.00
5146;BME280;2591;48.144;15.152;2023-02-16T01:09:36;78162.50;;;-144.65;100.00
5146;BME280;2591;48.144;15.152;2023-02-16T01:12:21;78158.41;;;-144.65;100.00
5146;BME280;2591;48.144;15.152;2023-02-16T01:14:51;78158.41;;;-144.65;100.00
5146;BME280;2591;48.144;15.152;2023-02-16T01:17:19;78166.56;;;-144.65;100.00
5146;BME280;2591;48.144;15.152;2023-02-16T01:19:47;78158.41;;;-144.65;100.00
5146;BME280;2591;48.144;15.152;2023-02-16T01:22:15;78154.31;;;-144.65;100.00
5146;BME280;2591;48.144;15.152;2023-02-16T01:24:45;78160.44;;;-144.65;100.00
5146;BME280;2591;48.144;15.152;2023-02-16T01:27:13;78162.50;;;-144.65;100.00
5146;BME280;2591;48.144;15.152;2023-02-16T01:29:40;78164.53;;;-144.65;100.00
5146;BME280;2591;48.144;15.152;2023-02-16T01:32:09;78162.50;;;-144.65;100.00
5146;BME280;2591;48.144;15.152;2023-02-16T01:34:38;78158.41;;;-144.65;100.00
5146;BME280;2591;48.144;15.152;2023-02-16T01:37:13;78154.31;;;-144.65;100.00
5146;BME280;2591;48.144;15.152;2023-02-16T01:39:41;78166.56;;;-144.65;100.00
5146;BME280;2591;48.144;15.152;2023-02-16T01:42:22;78162.50;;;-144.65;100.00
5146;BME280;2591;48.144;15.152;2023-02-16T01:44:53;78160.44;;;-144.65;100.00
5146;BME280;2591;48.144;15.152;2023-02-16T01:47:37;78158.41;;;-144.65;100.00
5146;BME280;2591;48.144;15.152;2023-02-16T01:50:14;78152.28;;;-144.65;100.00
5146;BME280;2591;48.144;15.152;2023-02-16T01:52:44;78144.13;;;-144.65;100.00
5146;BME280;2591;48.144;15.152;2023-02-16T01:55:18;78150.25;;;-144.65;100.00
5146;BME280;2591;48.144;15.152;2023-02-16T01:57:50;78142.09;;;-144.65;100.00
5146;BME280;2591;48.144;15.152;2023-02-16T02:00:26;78146.16;;;-144.65;100.00
5146;BME280;2591;48.144;15.152;2023-02-16T02:02:55;78140.03;;;-144.65;100.00
5146;BME280;2591;48.144;15.152;2023-02-16T02:05:46;78144.13;;;-144.65;100.00
5146;BME280;2591;48.144;15.152;2023-02-16T02:08:20;78148.22;;;-144.65;100.00
5146;BME280;2591;48.144;15.152;2023-02-16T02:10:59;78140.03;;;-144.65;100.00
5146;BME280;2591;48.144;15.152;2023-02-16T02:13:38;78142.09;;;-144.65;100.00
5146;BME280;2591;48.144;15.152;2023-02-16T02:16:09;78138.00;;;-144.65;100.00
5146;BME280;2591;48.144;15.152;2023-02-16T02:18:37;78146.16;;;-144.65;100.00
5146;BME280;2591;48.144;15.152;2023-02-16T02:27:20;78148.22;;;-144.65;100.00
5146;BME280;2591;48.144;15.152;2023-02-16T02:30:04;78150.25;;;-144.65;100.00
5146;BME280;2591;48.144;15.152;2023-02-16T02:32:46;78146.16;;;-144.65;100.00
5146;BME280;2591;48.144;15.152;2023-02-16T02:35:26;78138.00;;;-144.65;100.00
5146;BME280;2591;48.144;15.152;2023-02-16T02:37:59;78146.16;;;-144.65;100.00
5146;BME280;2591;48.144;15.152;2023-02-16T02:40:39;78150.25;;;-144.65;100.00
5146;BME280;2591;48.144;15.152;2023-02-16T02:43:15;78154.31;;;-144.65;100.00
5146;BME280;2591;48.144;15.152;2023-02-16T02:45:46;78158.41;;;-144.65;100.00
5146;BME280;2591;48.144;15.152;2023-02-16T02:48:15;78146.16;;;-144.65;100.00
5146;BME280;2591;48.144;15.152;2023-02-16T02:50:49;78154.31;;;-144.65;100.00
5146;BME280;2591;48.144;15.152;2023-02-16T02:53:38;78150.25;;;-144.65;100.00
5146;BME280;2591;48.144;15.152;2023-02-16T02:56:08;78146.16;;;-144.65;100.00
5146;BME280;2591;48.144;15.152;2023-02-16T02:58:57;78150.25;;;-144.65;100.00
5146;BME280;2591;48.144;15.152;2023-02-16T03:01:48;78146.16;;;-144.65;100.00
5146;BME280;2591;48.144;15.152;2023-02-16T03:04:20;78150.25;;;-144.65;100.00
5146;BME280;2591;48.144;15.152;2023-02-16T03:06:51;78150.25;;;-144.65;100.00
5146;BME280;2591;48.144;15.152;2023-02-16T03:09:20;78156.38;;;-144.65;100.00
5146;BME280;2591;48.144;15.152;2023-02-16T03:11:49;78152.28;;;-144.65;100.00
5146;BME280;2591;48.144;15.152;2023-02-16T03:14:39;78144.13;;;-144.65;100.00
5146;BME280;2591;48.144;15.152;2023-02-16T03:17:11;78154.31;;;-144.65;100.00
5146;BME280;2591;48.144;15.152;2023-02-16T03:19:59;78150.25;;;-144.65;100.00
5146;BME280;2591;48.144;15.152;2023-02-16T03:22:46;78150.25;;;-144.65;100.00
5146;BME280;2591;48.144;15.152;2023-02-16T03:25:34;78154.31;;;-144.65;100.00
5146;BME280;2591;48.144;15.152;2023-02-16T03:28:23;78148.22;;;-144.65;100.00
5146;BME280;2591;48.144;15.152;2023-02-16T03:31:11;78158.41;;;-144.65;100.00
5146;BME280;2591;48.144;15.152;2023-02-16T03:33:41;78156.38;;;-144.65;100.00
5146;BME280;2591;48.144;15.152;2023-02-16T03:36:09;78166.56;;;-144.65;100.00
5146;BME280;2591;48.144;15.152;2023-02-16T03:38:37;78162.50;;;-144.65;100.00
5146;BME280;2591;48.144;15.152;2023-02-16T03:41:05;78162.50;;;-144.65;100.00
5146;BME280;2591;48.144;15.152;2023-02-16T03:43:33;78162.50;;;-144.65;100.00
5146;BME280;2591;48.144;15.152;2023-02-16T03:46:01;78158.41;;;-144.65;100.00
5146;BME280;2591;48.144;15.152;2023-02-16T03:48:30;78164.53;;;-144.65;100.00
5146;BME280;2591;48.144;15.152;2023-02-16T03:50:58;78166.56;;;-144.65;100.00
5146;BME280;2591;48.144;15.152;2023-02-16T03:53:26;78164.53;;;-144.65;100.00
5146;BME280;2591;48.144;15.152;2023-02-16T03:55:53;78170.66;;;-144.65;100.00
5146;BME280;2591;48.144;15.152;2023-02-16T03:58:23;78164.53;;;-144.65;100.00
5146;BME280;2591;48.144;15.152;2023-02-16T04:00:51;78170.66;;;-144.65;100.00
5146;BME280;2591;48.144;15.152;2023-02-16T04:03:20;78166.56;;;-144.65;100.00
5146;BME280;2591;48.144;15.152;2023-02-16T04:05:49;78172.69;;;-144.65;100.00
5146;BME280;2591;48.144;15.152;2023-02-16T04:08:17;78174.72;;;-144.65;100.00
5146;BME280;2591;48.144;15.152;2023-02-16T04:10:44;78170.66;;;-144.65;100.00
5146;BME280;2591;48.144;15.152;2023-02-16T04:13:12;78170.66;;;-144.65;100.00
5146;BME280;2591;48.144;15.152;2023-02-16T04:15:39;78170.66;;;-144.65;100.00
5146;BME280;2591;48.144;15.152;2023-02-16T04:18:08;78172.69;;;-144.65;100.00
5146;BME280;2591;48.144;15.152;2023-02-16T04:20:36;78172.69;;;-144.65;100.00
5146;BME280;2591;48.144;15.152;2023-02-16T04:23:05;78172.69;;;-144.65;100.00
5146;BME280;2591;48.144;15.152;2023-02-16T04:25:34;78162.50;;;-144.65;100.00
5146;BME280;2591;48.144;15.152;2023-02-16T04:28:02;78162.50;;;-144.65;100.00
5146;BME280;2591;48.144;15.152;2023-02-16T04:30:30;78162.50;;;-144.65;100.00
5146;BME280;2591;48.144;15.152;2023-02-16T04:32:58;78162.50;;;-144.65;100.00
5146;BME280;2591;48.144;15.152;2023-02-16T04:35:26;78162.50;;;-144.65;100.00
5146;BME280;2591;48.144;15.152;2023-02-16T04:37:53;78150.25;;;-144.65;100.00
5146;BME280;2591;48.144;15.152;2023-02-16T04:40:23;78158.41;;;-144.65;100.00
5146;BME280;2591;48.144;15.152;2023-02-16T04:42:50;78158.41;;;-144.65;100.00
5146;BME280;2591;48.144;15.152;2023-02-16T04:45:18;78156.38;;;-144.65;100.00
5146;BME280;2591;48.144;15.152;2023-02-16T04:47:46;78156.38;;;-144.65;100.00
5146;BME280;2591;48.144;15.152;2023-02-16T04:50:14;78148.22;;;-144.65;100.00
5146;BME280;2591;48.144;15.152;2023-02-16T04:52:42;78148.22;;;-144.65;100.00
5146;BME280;2591;48.144;15.152;2023-02-16T04:55:09;78148.22;;;-144.65;100.00
5146;BME280;2591;48.144;15.152;2023-02-16T04:57:39;78138.00;;;-144.65;100.00
5146;BME280;2591;48.144;15.152;2023-02-16T05:00:08;78146.16;;;-144.65;100.00
5146;BME280;2591;48.144;15.152;2023-02-16T05:02:37;78144.13;;;-144.65;100.00
5146;BME280;2591;48.144;15.152;2023-02-16T05:05:05;78146.16;;;-144.65;100.00
5146;BME280;2591;48.144;15.152;2023-02-16T05:07:33;78150.25;;;-144.65;100.00
5146;BME280;2591;48.144;15.152;2023-02-16T05:10:02;78146.16;;;-144.65;100.00
5146;BME280;2591;48.144;15.152;2023-02-16T05:12:29;78150.25;;;-144.65;100.00
5146;BME280;2591;48.144;15.152;2023-02-16T05:15:16;78160.44;;;-144.65;100.00
5146;BME280;2591;48.144;15.152;2023-02-16T05:17:44;78166.56;;;-144.65;100.00
5146;BME280;2591;48.144;15.152;2023-02-16T05:20:12;78158.41;;;-144.65;100.00
5146;BME280;2591;48.144;15.152;2023-02-16T05:22:40;78164.53;;;-144.65;100.00
5146;BME280;2591;48.144;15.152;2023-02-16T05:25:09;78164.53;;;-144.65;100.00
5146;BME280;2591;48.144;15.152;2023-02-16T05:27:36;78162.50;;;-144.65;100.00
5146;BME280;2591;48.144;15.152;2023-02-16T05:30:06;78182.88;;;-144.65;100.00
5146;BME280;2591;48.144;15.152;2023-02-16T05:32:35;78178.81;;;-144.65;100.00
5146;BME280;2591;48.144;15.152;2023-02-16T05:35:03;78170.66;;;-144.65;100.00
5146;BME280;2591;48.144;15.152;2023-02-16T05:37:31;78170.66;;;-144.65;100.00
5146;BME280;2591;48.144;15.152;2023-02-16T05:39:59;78176.78;;;-144.65;100.00
5146;BME280;2591;48.144;15.152;2023-02-16T05:42:26;78174.72;;;-144.65;100.00
5146;BME280;2591;48.144;15.152;2023-02-16T05:44:54;78184.94;;;-144.65;100.00
5146;BME280;2591;48.144;15.152;2023-02-16T05:47:22;78182.88;;;-144.65;100.00
5146;BME280;2591;48.144;15.152;2023-02-16T05:49:51;78186.97;;;-144.65;100.00
5146;BME280;2591;48.144;15.152;2023-02-16T05:52:19;78191.03;;;-144.65;100.00
5146;BME280;2591;48.144;15.152;2023-02-16T05:54:47;78191.03;;;-144.65;100.00
5146;BME280;2591;48.144;15.152;2023-02-16T05:57:15;78191.03;;;-144.65;100.00
5146;BME280;2591;48.144;15.152;2023-02-16T05:59:42;78195.13;;;-144.65;100.00
5146;BME280;2591;48.144;15.152;2023-02-16T06:02:10;78207.38;;;-144.65;100.00
5146;BME280;2591;48.144;15.152;2023-02-16T06:04:38;78203.28;;;-144.65;100.00
5146;BME280;2591;48.144;15.152;2023-02-16T06:07:07;78215.53;;;-144.65;100.00
5146;BME280;2591;48.144;15.152;2023-02-16T06:09:35;78215.53;;;-144.65;100.00
5146;BME280;2591;48.144;15.152;2023-02-16T06:12:03;78201.25;;;-144.65;100.00
5146;BME280;2591;48.144;15.152;2023-02-16T06:14:31;78207.38;;;-144.65;100.00
5146;BME280;2591;48.144;15.152;2023-02-16T06:16:59;78209.41;;;-144.65;100.00
5146;BME280;2591;48.144;15.152;2023-02-16T06:19:27;78215.53;;;-144.65;100.00
5146;BME280;2591;48.144;15.152;2023-02-16T06:21:55;78209.41;;;-144.65;100.00
5146;BME280;2591;48.144;15.152;2023-02-16T06:24:24;78219.59;;;-144.65;100.00
5146;BME280;2591;48.144;15.152;2023-02-16T06:26:52;78213.50;;;-144.65;100.00
5146;BME280;2591;48.144;15.152;2023-02-16T06:29:19;78221.66;;;-144.65;100.00
5146;BME280;2591;48.144;15.152;2023-02-16T06:31:47;78213.50;;;-144.65;100.00
5146;BME280;2591;48.144;15.152;2023-02-16T06:34:15;78217.56;;;-144.65;100.00
5146;BME280;2591;48.144;15.152;2023-02-16T06:36:43;78221.66;;;-144.65;100.00
5146;BME280;2591;48.144;15.152;2023-02-16T06:39:11;78215.53;;;-144.65;100.00
5146;BME280;2591;48.144;15.152;2023-02-16T06:41:40;78217.56;;;-144.65;100.00
5146;BME280;2591;48.144;15.152;2023-02-16T06:44:09;78219.59;;;-144.65;100.00
5146;BME280;2591;48.144;15.152;2023-02-16T06:46:39;78219.59;;;-144.65;100.00
5146;BME280;2591;48.144;15.152;2023-02-16T06:49:10;78203.28;;;-144.65;100.00
5146;BME280;2591;48.144;15.152;2023-02-16T06:51:38;78207.38;;;-144.65;100.00
5146;BME280;2591;48.144;15.152;2023-02-16T06:54:06;78199.22;;;-144.65;100.00
5146;BME280;2591;48.144;15.152;2023-02-16T06:56:34;78195.13;;;-144.65;100.00
5146;BME280;2591;48.144;15.152;2023-02-16T06:59:05;78199.22;;;-144.65;100.00
5146;BME280;2591;48.144;15.152;2023-02-16T07:01:33;78199.22;;;-144.65;100.00
5146;BME280;2591;48.144;15.152;2023-02-16T07:04:01;78201.25;;;-144.65;100.00
5146;BME280;2591;48.144;15.152;2023-02-16T07:06:29;78205.31;;;-144.65;100.00
5146;BME280;2591;48.144;15.152;2023-02-16T07:08:57;78191.03;;;-144.65;100.00
5146;BME280;2591;48.144;15.152;2023-02-16T07:11:25;78193.09;;;-144.65;100.00
5146;BME280;2591;48.144;15.152;2023-02-16T07:13:53;78199.22;;;-144.65;100.00
5146;BME280;2591;48.144;15.152;2023-02-16T07:16:22;78191.03;;;-144.65;100.00
5146;BME280;2591;48.144;15.152;2023-02-16T07:18:51;78201.25;;;-144.65;100.00
5146;BME280;2591;48.144;15.152;2023-02-16T07:21:18;78203.28;;;-144.65;100.00
5146;BME280;2591;48.144;15.152;2023-02-16T07:23:46;78199.22;;;-144.65;100.00
5146;BME280;2591;48.144;15.152;2023-02-16T07:26:14;78195.13;;;-144.65;100.00
5146;BME280;2591;48.144;15.152;2023-02-16T07:28:42;78186.97;;;-144.65;100.00
5146;BME280;2591;48.144;15.152;2023-02-16T07:31:11;78191.03;;;-144.65;100.00
5146;BME280;2591;48.144;15.152;2023-02-16T07:33:41;78191.03;;;-144.65;100.00
5146;BME280;2591;48.144;15.152;2023-02-16T07:36:10;78189.00;;;-144.65;100.00
5146;BME280;2591;48.144;15.152;2023-02-16T07:38:39;78182.88;;;-144.65;100.00
5146;BME280;2591;48.144;15.152;2023-02-16T07:41:07;78191.03;;;-144.65;100.00
5146;BME280;2591;48.144;15.152;2023-02-16T07:43:36;78182.88;;;-144.65;100.00
5146;BME280;2591;48.144;15.152;2023-02-16T07:46:05;78184.94;;;-144.65;100.00
5146;BME280;2591;48.144;15.152;2023-02-16T07:48:33;78186.97;;;-144.65;100.00
5146;BME280;2591;48.144;15.152;2023-02-16T07:51:02;78184.94;;;-144.65;100.00
5146;BME280;2591;48.144;15.152;2023-02-16T07:53:31;78180.84;;;-144.65;100.00
5146;BME280;2591;48.144;15.152;2023-02-16T07:55:59;78174.72;;;-144.65;100.00
5146;BME280;2591;48.144;15.152;2023-02-16T07:58:26;78174.72;;;-144.65;100.00
5146;BME280;2591;48.144;15.152;2023-02-16T08:00:55;78170.66;;;-144.65;100.00
5146;BME280;2591;48.144;15.152;2023-02-16T08:03:24;78178.81;;;-144.65;100.00
5146;BME280;2591;48.144;15.152;2023-02-16T08:05:52;78170.66;;;-144.65;100.00
5146;BME280;2591;48.144;15.152;2023-02-16T08:08:21;78164.53;;;-144.65;100.00
5146;BME280;2591;48.144;15.152;2023-02-16T08:10:49;78154.31;;;-144.65;100.00
5146;BME280;2591;48.144;15.152;2023-02-16T08:13:16;78148.22;;;-144.65;100.00
5146;BME280;2591;48.144;15.152;2023-02-16T08:15:44;78133.94;;;-144.65;100.00
5146;BME280;2591;48.144;15.152;2023-02-16T08:18:12;78115.56;;;-144.65;100.00
5146;BME280;2591;48.144;15.152;2023-02-16T08:20:40;78121.69;;;-144.65;100.00
5146;BME280;2591;48.144;15.152;2023-02-16T08:23:30;78115.56;;;-144.65;100.00
5146;BME280;2591;48.144;15.152;2023-02-16T08:25:58;78121.69;;;-144.65;100.00
5146;BME280;2591;48.144;15.152;2023-02-16T08:28:25;78109.44;;;-144.65;100.00
5146;BME280;2591;48.144;15.152;2023-02-16T08:30:55;78099.25;;;-144.65;100.00
5146;BME280;2591;48.144;15.152;2023-02-16T08:33:22;78097.22;;;-144.65;100.00
5146;BME280;2591;48.144;15.152;2023-02-16T08:35:50;78101.28;;;-144.65;100.00
5146;BME280;2591;48.144;15.152;2023-02-16T08:38:18;78101.28;;;-144.65;100.00
5146;BME280;2591;48.144;15.152;2023-02-16T08:40:48;78095.16;;;-144.65;100.00
5146;BME280;2591;48.144;15.152;2023-02-16T08:43:16;78101.28;;;-144.65;100.00
5146;BME280;2591;48.144;15.152;2023-02-16T08:45:44;78103.31;;;-144.65;100.00
5146;BME280;2591;48.144;15.152;2023-02-16T08:48:13;78089.03;;;-144.65;100.00
5146;BME280;2591;48.144;15.152;2023-02-16T08:50:42;78099.25;;;-144.65;100.00
5146;BME280;2591;48.144;15.152;2023-02-16T08:53:12;78109.44;;;-144.65;100.00
5146;BME280;2591;48.144;15.152;2023-02-16T08:55:40;78117.59;;;-144.65;100.00
5146;BME280;2591;48.144;15.152;2023-02-16T08:58:10;78121.69;;;-144.65;100.00
5146;BME280;2591;48.144;15.152;2023-02-16T09:00:37;78129.84;;;-144.65;100.00
5146;BME280;2591;48.144;15.152;2023-02-16T09:03:06;78129.84;;;-144.65;100.00
5146;BME280;2591;48.144;15.152;2023-02-16T09:05:34;78117.59;;;-144.65;100.00
5146;BME280;2591;48.144;15.152;2023-02-16T09:08:02;78125.78;;;-144.65;100.00
5146;BME280;2591;48.144;15.152;2023-02-16T09:10:30;78127.81;;;-144.65;100.00
5146;BME280;2591;48.144;15.152;2023-02-16T09:12:58;78138.00;;;-144.65;100.00
5146;BME280;2591;48.144;15.152;2023-02-16T09:15:28;78146.16;;;-144.65;100.00
5146;BME280;2591;48.144;15.152;2023-02-16T09:17:56;78144.13;;;-144.65;100.00
5146;BME280;2591;48.144;15.152;2023-02-16T09:20:24;78133.94;;;-144.65;100.00
5146;BME280;2591;48.144;15.152;2023-02-16T09:22:53;78121.69;;;-144.65;100.00
5146;BME280;2591;48.144;15.152;2023-02-16T09:25:21;78131.88;;;-144.65;100.00
5146;BME280;2591;48.144;15.152;2023-02-16T09:27:50;78125.78;;;-144.65;100.00
5146;BME280;2591;48.144;15.152;2023-02-16T09:30:18;78123.72;;;-144.65;100.00
5146;BME280;2591;48.144;15.152;2023-02-16T09:32:48;78107.41;;;-144.65;100.00
5146;BME280;2591;48.144;15.152;2023-02-16T09:35:16;78107.41;;;-144.65;100.00
5146;BME280;2591;48.144;15.152;2023-02-16T09:37:44;78101.28;;;-144.65;100.00
5146;BME280;2591;48.144;15.152;2023-02-16T09:40:12;78109.44;;;-144.65;100.00
5146;BME280;2591;48.144;15.152;2023-02-16T09:42:52;78109.44;;;-144.65;100.00
5146;BME280;2591;48.144;15.152;2023-02-16T09:45:23;78097.22;;;-144.65;100.00
5146;BME280;2591;48.144;15.152;2023-02-16T09:47:55;78093.13;;;-144.65;100.00
5146;BME280;2591;48.144;15.152;2023-02-16T09:50:26;78070.69;;;-144.65;100.00
5146;BME280;2591;48.144;15.152;2023-02-16T09:53:21;78072.72;;;-144.65;100.00
5146;BME280;2591;48.144;15.152;2023-02-16T09:55:53;78082.94;;;-144.65;100.00
5146;BME280;2591;48.144;15.152;2023-02-16T09:58:28;78072.72;;;-144.65;100.00
5146;BME280;2591;48.144;15.152;2023-02-16T10:01:06;78072.72;;;-144.65;100.00
5146;BME280;2591;48.144;15.152;2023-02-16T10:03:49;78060.50;;;-144.65;100.00
5146;BME280;2591;48.144;15.152;2023-02-16T10:06:26;78038.06;;;-144.65;100.00
5146;BME280;2591;48.144;15.152;2023-02-16T10:08:58;78031.94;;;-144.65;100.00
5146;BME280;2591;48.144;15.152;2023-02-16T10:11:33;78023.78;;;-144.65;100.00
5146;BME280;2591;48.144;15.152;2023-02-16T10:14:14;78015.59;;;-144.65;100.00
5146;BME280;2591;48.144;15.152;2023-02-16T10:16:49;78005.41;;;-144.65;100.00
5146;BME280;2591;48.144;15.152;2023-02-16T10:19:22;77995.22;;;-144.65;100.00
5146;BME280;2591;48.144;15.152;2023-02-16T10:21:57;77978.88;;;-144.65;100.00
5146;BME280;2591;48.144;15.152;2023-02-16T10:24:28;77968.69;;;-144.65;100.00
5146;BME280;2591;48.144;15.152;2023-02-16T10:27:01;77942.16;;;-144.65;100.00
5146;BME280;2591;48.144;15.152;2023-02-16T10:29:32;77938.09;;;-144.65;100.00
5146;BME280;2591;48.144;15.152;2023-02-16T10:32:09;77905.47;;;-144.65;100.00
5146;BME280;2591;48.144;15.152;2023-02-16T10:34:48;77876.91;;;-144.65;100.00
5146;BME280;2591;48.144;15.152;2023-02-16T10:37:24;77893.22;;;-144.65;100.00
5146;BME280;2591;48.144;15.152;2023-02-16T10:40:12;77858.53;;;-144.65;100.00
5146;BME280;2591;48.144;15.152;2023-02-16T10:42:45;77844.25;;;-144.65;100.00
5146;BME280;2591;48.144;15.152;2023-02-16T10:45:22;77813.66;;;-144.65;100.00
5146;BME280;2591;48.144;15.152;2023-02-16T10:47:53;77795.31;;;-144.65;100.00
5146;BME280;2591;48.144;15.152;2023-02-16T10:50:25;77803.47;;;-144.65;100.00
5146;BME280;2591;48.144;15.152;2023-02-16T10:52:57;77799.38;;;-144.65;100.00
5146;BME280;2591;48.144;15.152;2023-02-16T10:55:26;77811.63;;;-144.65;100.00
5146;BME280;2591;48.144;15.152;2023-02-16T10:57:57;77832.03;;;-144.65;100.00
5146;BME280;2591;48.144;15.152;2023-02-16T11:00:36;77821.81;;;-144.65;100.00
5146;BME280;2591;48.144;15.152;2023-02-16T11:03:11;77799.38;;;-144.65;100.00
5146;BME280;2591;48.144;15.152;2023-02-16T11:05:42;77770.81;;;-144.65;100.00
5146;BME280;2591;48.144;15.152;2023-02-16T11:08:09;77768.78;;;-144.65;100.00
5146;BME280;2591;48.144;15.152;2023-02-16T11:10:42;77742.28;;;-144.65;100.00
5146;BME280;2591;48.144;15.152;2023-02-16T11:13:25;77701.47;;;-144.65;100.00
5146;BME280;2591;48.144;15.152;2023-02-16T11:15:56;77697.41;;;-144.65;100.00
5146;BME280;2591;48.144;15.152;2023-02-16T11:18:30;77689.25;;;-144.65;100.00
5146;BME280;2591;48.144;15.152;2023-02-16T11:21:01;77668.84;;;-144.65;99.68
5146;BME280;2591;48.144;15.152;2023-02-16T11:23:30;77658.63;;;-144.65;97.73
5146;BME280;2591;48.144;15.152;2023-02-16T11:26:01;77640.28;;;-144.65;97.57
5146;BME280;2591;48.144;15.152;2023-02-16T11:28:33;77615.81;;;-144.65;96.57
5146;BME280;2591;48.144;15.152;2023-02-16T11:31:11;77593.38;;;-144.65;95.06
5146;BME280;2591;48.144;15.152;2023-02-16T11:33:41;77568.91;;;-144.65;93.75
5146;BME280;2591;48.144;15.152;2023-02-16T11:36:24;77550.53;;;-144.65;92.97
5146;BME280;2591;48.144;15.152;2023-02-16T11:38:57;77534.22;;;-144.65;92.05
5146;BME280;2591;48.144;15.152;2023-02-16T11:41:26;77509.75;;;-144.65;90.82
5146;BME280;2591;48.144;15.152;2023-02-16T11:43:55;77505.66;;;-144.65;89.94
5146;BME280;2591;48.144;15.152;2023-02-16T11:46:24;77491.38;;;-144.65;88.69
5146;BME280;2591;48.144;15.152;2023-02-16T11:48:52;77505.66;;;-144.65;87.83
5146;BME280;2591;48.144;15.152;2023-02-16T11:51:33;77489.34;;;-144.65;87.96
5146;BME280;2591;48.144;15.152;2023-02-16T11:54:04;77485.28;;;-144.65;88.55
5146;BME280;2591;48.144;15.152;2023-02-16T11:56:34;77477.09;;;-144.65;88.90
5146;BME280;2591;48.144;15.152;2023-02-16T11:59:11;77458.75;;;-144.65;89.37
5146;BME280;2591;48.144;15.152;2023-02-16T12:01:58;77460.78;;;-144.65;88.52
5146;BME280;2591;48.144;15.152;2023-02-16T12:04:41;77448.56;;;-144.65;88.21
5146;BME280;2591;48.144;15.152;2023-02-16T12:07:24;77456.72;;;-144.65;87.19
5146;BME280;2591;48.144;15.152;2023-02-16T12:10:02;77456.72;;;-144.65;86.81
5146;BME280;2591;48.144;15.152;2023-02-16T12:12:37;77444.47;;;-144.65;86.52
5146;BME280;2591;48.144;15.152;2023-02-16T12:15:16;77424.09;;;-144.65;86.65
5146;BME280;2591;48.144;15.152;2023-02-16T12:17:55;77411.84;;;-144.65;86.03
5146;BME280;2591;48.144;15.152;2023-02-16T12:20:35;77407.75;;;-144.65;86.32
5146;BME280;2591;48.144;15.152;2023-02-16T12:23:17;77407.75;;;-144.65;86.68
5146;BME280;2591;48.144;15.152;2023-02-16T12:25:54;77411.84;;;-144.65;86.82
5146;BME280;2591;48.144;15.152;2023-02-16T12:28:35;77415.91;;;-144.65;85.98
5146;BME280;2591;48.144;15.152;2023-02-16T12:31:12;77413.88;;;-144.65;85.76
5146;BME280;2591;48.144;15.152;2023-02-16T12:33:49;77411.84;;;-144.65;86.75
5146;BME280;2591;48.144;15.152;2023-02-16T12:36:31;77387.38;;;-144.65;87.36
5146;BME280;2591;48.144;15.152;2023-02-16T12:39:10;77362.88;;;-144.65;87.54
5146;BME280;2591;48.144;15.152;2023-02-16T12:41:46;77348.63;;;-144.65;86.45
5146;BME280;2591;48.144;15.152;2023-02-16T12:44:31;77342.50;;;-144.65;84.75
5146;BME280;2591;48.144;15.152;2023-02-16T12:47:03;77362.88;;;-144.65;84.39
5146;BME280;2591;48.144;15.152;2023-02-16T12:49:42;77346.56;;;-144.65;85.90
5146;BME280;2591;48.144;15.152;2023-02-16T12:52:26;77305.78;;;-144.65;84.54
5146;BME280;2591;48.144;15.152;2023-02-16T12:55:07;77318.03;;;-144.65;82.92
5146;BME280;2591;48.144;15.152;2023-02-16T12:57:44;77309.88;;;-144.65;83.35
5146;BME280;2591;48.144;15.152;2023-02-16T13:00:15;77285.38;;;-144.65;82.84
5146;BME280;2591;48.144;15.152;2023-02-16T13:02:48;77297.63;;;-144.65;82.76
5146;BME280;2591;48.144;15.152;2023-02-16T13:05:20;77303.75;;;-144.65;83.14
5146;BME280;2591;48.144;15.152;2023-02-16T13:07:52;77299.66;;;-144.65;82.67
5146;BME280;2591;48.144;15.152;2023-02-16T13:10:30;77301.72;;;-144.65;82.92